createdAt,value
2019-04-20T00:01:28.701Z,3.70
2019-04-20T00:03:00.094Z,4.07
2019-04-20T00:04:37.410Z,3.53
2019-04-20T00:06:13.133Z,3.40
2019-04-20T00:07:48.112Z,3.73
2019-04-20T00:09:26.556Z,3.73
2019-04-20T00:11:07.380Z,3.50
2019-04-20T00:12:55.644Z,3.53
2019-04-20T00:14:19.236Z,4.10
2019-04-20T00:15:51.251Z,3.40
2019-04-20T00:17:26.718Z,3.43
2019-04-20T00:19:05.231Z,3.80
2019-04-20T00:20:42.132Z,3.10
2019-04-20T00:22:39.314Z,3.63
2019-04-20T00:24:17.000Z,3.60
2019-04-20T00:26:24.951Z,3.70
2019-04-20T00:28:19.474Z,3.13
2019-04-20T00:29:56.211Z,4.00
2019-04-20T00:31:31.039Z,3.67
2019-04-20T00:33:01.993Z,4.13
2019-04-20T00:34:32.014Z,3.67
2019-04-20T00:36:03.330Z,3.40
2019-04-20T00:37:38.088Z,3.67
2019-04-20T00:39:15.099Z,3.53
2019-04-20T00:40:56.145Z,3.80
2019-04-20T00:42:36.687Z,3.63
2019-04-20T00:44:07.159Z,3.80
2019-04-20T00:45:49.460Z,3.47
2019-04-20T00:47:33.450Z,3.73
2019-04-20T00:49:00.845Z,3.67
2019-04-20T00:50:46.949Z,3.67
2019-04-20T00:52:27.415Z,3.30
2019-04-20T00:53:47.710Z,3.63
2019-04-20T00:55:19.102Z,3.43
2019-04-20T00:57:06.645Z,3.97
2019-04-20T00:58:41.018Z,3.60
2019-04-20T01:00:27.145Z,3.93
2019-04-20T01:02:03.754Z,3.83
2019-04-20T01:03:34.112Z,3.67
2019-04-20T01:05:16.488Z,3.50
2019-04-20T01:07:11.259Z,3.40
2019-04-20T01:09:01.370Z,3.63
2019-04-20T01:10:44.776Z,3.30
2019-04-20T01:12:18.255Z,3.57
2019-04-20T01:13:55.381Z,3.83
2019-04-20T01:15:40.665Z,3.80
2019-04-20T01:17:11.655Z,3.53
2019-04-20T01:18:39.595Z,3.60
2019-04-20T01:20:14.581Z,3.43
2019-04-20T01:21:57.862Z,3.20
2019-04-20T01:23:34.752Z,3.80
2019-04-20T01:25:09.770Z,3.77
2019-04-20T01:26:43.736Z,3.63
2019-04-20T01:28:31.022Z,3.67
2019-04-20T01:30:02.511Z,3.43
2019-04-20T01:31:36.422Z,4.13
2019-04-20T01:33:16.327Z,3.63
2019-04-20T01:34:52.502Z,3.87
2019-04-20T01:36:36.895Z,3.87
2019-04-20T01:38:13.989Z,3.90
2019-04-20T01:39:39.350Z,4.10
2019-04-20T01:41:05.835Z,3.63
2019-04-20T01:42:40.552Z,3.40
2019-04-20T01:44:18.045Z,3.70
2019-04-20T01:46:01.410Z,4.00
2019-04-20T01:47:32.363Z,4.17
2019-04-20T01:49:12.600Z,4.30
2019-04-20T01:50:50.002Z,3.97
2019-04-20T01:52:26.895Z,3.97
2019-04-20T01:54:17.679Z,4.00
2019-04-20T01:55:50.738Z,4.10
2019-04-20T01:57:56.174Z,3.90
2019-04-20T01:59:31.734Z,3.83
2019-04-20T02:01:11.917Z,4.20
2019-04-20T02:02:58.690Z,4.00
2019-04-20T02:04:39.046Z,3.83
2019-04-20T02:06:15.094Z,3.70
2019-04-20T02:07:49.326Z,4.03
2019-04-20T02:09:26.382Z,3.43
2019-04-20T02:11:03.617Z,3.80
2019-04-20T02:12:39.243Z,3.73
2019-04-20T02:14:13.894Z,3.87
2019-04-20T02:15:55.352Z,3.50
2019-04-20T02:17:33.166Z,3.90
2019-04-20T02:19:18.645Z,4.00
2019-04-20T02:21:00.286Z,3.97
2019-04-20T02:22:34.161Z,4.17
2019-04-20T02:23:57.325Z,4.27
2019-04-20T02:25:27.015Z,4.30
2019-04-20T02:27:02.028Z,3.57
2019-04-20T02:29:00.855Z,4.10
2019-04-20T02:30:49.713Z,3.93
2019-04-20T02:32:33.919Z,3.77
2019-04-20T02:36:04.980Z,3.80
2019-04-20T02:41:12.060Z,4.30
2019-04-20T02:45:53.046Z,4.00
2019-04-20T02:49:26.183Z,4.30
2019-04-20T02:50:44.287Z,3.97
2019-04-20T02:52:31.451Z,4.20
2019-04-20T02:54:11.026Z,3.90
2019-04-20T02:57:12.184Z,4.83
2019-04-20T02:58:57.620Z,4.40
2019-04-20T03:00:19.441Z,4.40
2019-04-20T03:01:50.184Z,4.67
2019-04-20T03:03:19.537Z,4.13
2019-04-20T03:04:50.946Z,4.37
2019-04-20T03:06:32.925Z,4.20
2019-04-20T03:08:13.575Z,4.60
2019-04-20T03:09:50.517Z,4.53
2019-04-20T03:11:44.279Z,4.27
2019-04-20T03:13:09.798Z,4.40
2019-04-20T03:14:40.094Z,4.27
2019-04-20T03:16:16.738Z,4.53
2019-04-20T03:18:00.120Z,4.00
2019-04-20T03:19:28.427Z,4.70
2019-04-20T03:21:12.770Z,4.50
2019-04-20T03:23:05.178Z,4.90
2019-04-20T03:24:26.565Z,4.90
2019-04-20T03:26:06.449Z,4.70
2019-04-20T03:27:59.141Z,5.27
2019-04-20T03:29:56.653Z,5.60
2019-04-20T03:31:56.242Z,5.03
2019-04-20T03:33:31.052Z,5.00
2019-04-20T03:36:34.671Z,4.53
2019-04-20T03:38:07.545Z,4.53
2019-04-20T03:39:37.595Z,4.60
2019-04-20T03:41:08.205Z,5.00
2019-04-20T03:42:32.922Z,5.00
2019-04-20T03:44:12.699Z,4.47
2019-04-20T03:45:51.767Z,4.47
2019-04-20T03:47:30.413Z,4.40
2019-04-20T03:49:14.622Z,5.00
2019-04-20T03:50:51.133Z,4.83
2019-04-20T03:52:36.511Z,4.33
2019-04-20T03:54:38.931Z,4.73
2019-04-20T03:56:35.158Z,4.70
2019-04-20T03:58:17.123Z,5.30
2019-04-20T04:00:03.627Z,4.40
2019-04-20T04:04:12.160Z,4.63
2019-04-20T04:05:42.489Z,4.07
2019-04-20T04:07:15.590Z,3.93
2019-04-20T04:08:55.506Z,3.83
2019-04-20T04:10:30.485Z,4.13
2019-04-20T04:12:06.529Z,4.50
2019-04-20T04:13:29.302Z,4.40
2019-04-20T04:15:04.268Z,4.50
2019-04-20T04:16:45.666Z,4.27
2019-04-20T04:18:25.027Z,4.77
2019-04-20T04:20:00.829Z,4.23
2019-04-20T04:21:45.782Z,4.43
2019-04-20T04:23:22.146Z,5.03
2019-04-20T04:24:57.033Z,4.60
2019-04-20T04:26:34.005Z,3.90
2019-04-20T04:28:10.822Z,4.93
2019-04-20T04:29:55.930Z,4.33
2019-04-20T04:31:31.106Z,4.73
2019-04-20T04:33:32.623Z,5.00
2019-04-20T04:34:40.609Z,4.60
2019-04-20T04:36:15.560Z,4.30
2019-04-20T04:37:53.556Z,4.70
2019-04-20T04:39:30.943Z,5.03
2019-04-20T04:41:16.741Z,4.60
2019-04-20T04:42:46.584Z,4.40
2019-04-20T04:44:15.257Z,4.40
2019-04-20T04:45:37.007Z,4.90
2019-04-20T04:47:13.392Z,4.97
2019-04-20T04:48:51.075Z,4.40
2019-04-20T04:50:26.994Z,4.50
2019-04-20T04:52:06.173Z,4.50
2019-04-20T04:53:47.935Z,4.70
2019-04-20T04:55:26.693Z,4.70
2019-04-20T04:56:50.588Z,4.53
2019-04-20T04:58:25.692Z,4.57
2019-04-20T05:00:01.588Z,4.20
2019-04-20T05:01:39.367Z,3.80
2019-04-20T05:03:35.840Z,4.37
2019-04-20T05:05:47.256Z,4.30
2019-04-20T05:07:16.083Z,4.03
2019-04-20T05:08:45.480Z,4.07
2019-04-20T05:10:18.917Z,4.60
2019-04-20T05:11:59.702Z,3.70
2019-04-20T05:13:37.023Z,4.10
2019-04-20T05:15:16.037Z,3.63
2019-04-20T05:16:58.321Z,3.70
2019-04-20T05:18:45.150Z,3.63
2019-04-20T05:20:13.370Z,4.20
2019-04-20T05:22:19.349Z,4.00
2019-04-20T05:24:09.877Z,3.50
2019-04-20T05:26:14.087Z,3.40
2019-04-20T05:27:52.350Z,4.30
2019-04-20T05:29:15.475Z,3.80
2019-04-20T05:30:48.584Z,4.40
2019-04-20T05:32:32.760Z,4.00
2019-04-20T05:34:20.434Z,4.30
2019-04-20T05:35:58.904Z,3.70
2019-04-20T05:37:34.377Z,3.50
2019-04-20T05:39:17.283Z,3.60
2019-04-20T05:40:45.977Z,3.50
2019-04-20T05:42:24.584Z,3.93
2019-04-20T05:44:04.696Z,3.20
2019-04-20T05:45:38.034Z,2.90
2019-04-20T05:47:24.011Z,3.13
2019-04-20T05:48:56.210Z,3.30
2019-04-20T05:50:32.891Z,3.00
2019-04-20T05:52:24.111Z,3.33
2019-04-20T05:53:45.409Z,3.30
2019-04-20T05:55:27.840Z,3.30
2019-04-20T05:57:08.813Z,3.00
2019-04-20T05:58:32.948Z,3.43
2019-04-20T06:00:13.891Z,3.17
2019-04-20T06:01:52.421Z,3.20
2019-04-20T06:03:29.591Z,3.20
2019-04-20T06:05:05.641Z,3.03
2019-04-20T06:06:39.145Z,3.50
2019-04-20T06:08:25.016Z,3.27
2019-04-20T06:09:54.247Z,3.10
2019-04-20T06:11:26.786Z,3.10
2019-04-20T06:13:00.554Z,3.20
2019-04-20T06:15:08.314Z,3.10
2019-04-20T06:17:13.735Z,3.30
2019-04-20T06:18:40.186Z,3.63
2019-04-20T06:20:31.306Z,3.27
2019-04-20T06:22:39.187Z,2.87
2019-04-20T06:24:10.634Z,3.47
2019-04-20T06:26:11.098Z,3.47
2019-04-20T06:27:31.268Z,3.03
2019-04-20T06:29:00.057Z,3.13
2019-04-20T06:30:40.580Z,3.17
2019-04-20T06:32:23.316Z,3.20
2019-04-20T06:36:10.264Z,2.90
2019-04-20T06:37:29.647Z,2.80
2019-04-20T06:39:13.385Z,2.70
2019-04-20T06:40:53.969Z,2.80
2019-04-20T06:42:34.298Z,2.60
2019-04-20T06:44:06.518Z,2.97
2019-04-20T06:45:34.964Z,3.27
2019-04-20T06:47:16.368Z,2.63
2019-04-20T06:48:45.899Z,2.77
2019-04-20T06:50:17.284Z,2.70
2019-04-20T06:52:09.793Z,2.97
2019-04-20T06:53:46.850Z,2.83
2019-04-20T06:55:20.663Z,3.07
2019-04-20T06:56:59.461Z,3.37
2019-04-20T06:58:46.352Z,3.20
2019-04-20T07:01:57.068Z,3.00
2019-04-20T07:03:37.726Z,2.90
2019-04-20T07:04:59.744Z,4.20
2019-04-20T07:08:36.029Z,3.30
2019-04-20T07:09:59.881Z,2.90
2019-04-20T07:11:28.243Z,3.40
2019-04-20T07:13:00.312Z,3.17
2019-04-20T07:14:33.093Z,3.33
2019-04-20T07:16:30.580Z,3.10
2019-04-20T07:18:03.206Z,3.10
2019-04-20T07:19:44.410Z,2.80
2019-04-20T07:21:52.352Z,2.90
2019-04-20T07:25:01.153Z,3.20
2019-04-20T07:26:39.982Z,2.90
2019-04-20T07:28:14.411Z,3.13
2019-04-20T07:29:53.387Z,3.03
2019-04-20T07:31:22.986Z,3.93
2019-04-20T07:32:57.758Z,3.50
2019-04-20T07:34:34.858Z,3.10
2019-04-20T07:36:21.506Z,2.70
2019-04-20T07:39:33.401Z,3.20
2019-04-20T07:41:17.476Z,2.70
2019-04-20T07:42:55.173Z,3.17
2019-04-20T07:44:27.026Z,2.83
2019-04-20T07:45:58.818Z,2.80
2019-04-20T07:47:37.978Z,3.00
2019-04-20T07:49:08.665Z,3.03
2019-04-20T07:50:37.468Z,3.10
2019-04-20T07:51:59.590Z,3.13
2019-04-20T07:53:57.594Z,3.20
2019-04-20T07:55:47.790Z,3.27
2019-04-20T07:57:03.870Z,2.80
2019-04-20T07:58:33.941Z,3.17
2019-04-20T08:00:26.236Z,3.20
2019-04-20T08:02:15.971Z,3.10
2019-04-20T08:03:55.700Z,2.97
2019-04-20T08:05:39.250Z,2.73
2019-04-20T08:07:09.091Z,3.10
2019-04-20T08:08:57.368Z,3.10
2019-04-20T08:10:33.657Z,3.40
2019-04-20T08:12:26.932Z,3.13
2019-04-20T08:14:01.965Z,3.13
2019-04-20T08:15:42.736Z,3.00
2019-04-20T08:17:20.305Z,3.07
2019-04-20T08:18:49.872Z,3.20
2019-04-20T08:20:20.360Z,2.93
2019-04-20T08:21:59.132Z,3.27
2019-04-20T08:23:35.962Z,3.00
2019-04-20T08:25:04.642Z,3.20
2019-04-20T08:26:35.757Z,3.23
2019-04-20T08:28:24.162Z,2.77
2019-04-20T08:30:09.221Z,3.00
2019-04-20T08:32:16.415Z,2.87
2019-04-20T08:33:55.482Z,3.20
2019-04-20T08:35:26.852Z,2.93
2019-04-20T08:37:03.170Z,3.17
2019-04-20T08:40:13.233Z,3.10
2019-04-20T08:41:56.305Z,3.40
2019-04-20T08:43:39.551Z,3.67
2019-04-20T08:45:03.965Z,3.50
2019-04-20T08:46:45.589Z,3.13
2019-04-20T08:48:23.398Z,3.53
2019-04-20T08:50:18.210Z,3.43
2019-04-20T08:51:55.580Z,3.00
2019-04-20T08:53:26.488Z,3.60
2019-04-20T08:55:02.335Z,3.53
2019-04-20T08:56:29.115Z,3.87
2019-04-20T08:57:52.101Z,3.33
2019-04-20T08:59:26.800Z,2.87
2019-04-20T09:01:05.013Z,3.47
2019-04-20T09:02:41.214Z,3.47
2019-04-20T09:04:20.733Z,3.30
2019-04-20T09:06:01.053Z,3.17
2019-04-20T09:07:30.594Z,2.90
2019-04-20T09:09:33.178Z,3.23
2019-04-20T09:11:00.006Z,3.67
2019-04-20T09:12:35.704Z,3.00
2019-04-20T09:14:00.221Z,3.60
2019-04-20T09:15:34.089Z,2.97
2019-04-20T09:17:27.307Z,2.97
2019-04-20T09:19:03.605Z,3.43
2019-04-20T09:20:43.724Z,3.13
2019-04-20T09:22:40.210Z,3.03
2019-04-20T09:24:26.935Z,3.03
2019-04-20T09:26:01.948Z,2.77
2019-04-20T09:27:25.341Z,3.10
2019-04-20T09:29:05.662Z,3.07
2019-04-20T09:30:39.527Z,2.83
2019-04-20T09:32:29.034Z,3.40
2019-04-20T09:34:33.744Z,2.90
2019-04-20T09:36:08.544Z,2.97
2019-04-20T09:37:53.011Z,2.83
2019-04-20T09:39:28.390Z,2.83
2019-04-20T09:41:11.179Z,2.70
2019-04-20T09:42:39.456Z,2.60
2019-04-20T09:44:15.464Z,2.73
2019-04-20T09:45:55.511Z,2.93
2019-04-20T09:47:34.394Z,2.90
2019-04-20T09:49:16.988Z,2.70
2019-04-20T09:50:57.550Z,3.00
2019-04-20T09:52:29.653Z,3.10
2019-04-20T09:54:04.340Z,2.87
2019-04-20T09:55:42.525Z,2.73
2019-04-20T09:57:25.290Z,2.80
2019-04-20T09:59:01.317Z,2.87
2019-04-20T10:00:39.071Z,2.93
2019-04-20T10:02:06.676Z,2.80
2019-04-20T10:03:32.267Z,2.83
2019-04-20T10:05:07.422Z,2.63
2019-04-20T10:06:43.604Z,2.70
2019-04-20T10:08:19.555Z,3.23
2019-04-20T10:09:55.821Z,3.00
2019-04-20T10:11:31.827Z,2.70
2019-04-20T10:13:07.327Z,3.40
2019-04-20T10:14:42.727Z,2.83
2019-04-20T10:16:17.781Z,2.80
2019-04-20T10:17:53.952Z,2.73
2019-04-20T10:19:32.498Z,3.17
2019-04-20T10:21:05.913Z,3.40
2019-04-20T10:22:40.642Z,3.30
2019-04-20T10:24:16.710Z,2.97
2019-04-20T10:25:51.371Z,2.87
2019-04-20T10:27:26.517Z,3.27
2019-04-20T10:29:01.629Z,2.90
2019-04-20T10:30:36.772Z,3.67
2019-04-20T10:32:14.551Z,2.87
2019-04-20T10:33:49.269Z,2.70
2019-04-20T10:35:25.476Z,2.70
2019-04-20T10:37:19.717Z,3.20
2019-04-20T10:38:54.840Z,3.07
2019-04-20T10:40:44.958Z,2.97
2019-04-20T10:42:06.331Z,3.30
2019-04-20T10:43:41.044Z,3.40
2019-04-20T10:45:17.048Z,3.77
2019-04-20T10:46:53.258Z,3.43
2019-04-20T10:48:33.907Z,3.50
2019-04-20T10:50:05.011Z,3.73
2019-04-20T10:51:40.177Z,3.10
2019-04-20T10:53:14.951Z,3.20
2019-04-20T10:54:50.386Z,3.63
2019-04-20T10:56:25.441Z,3.60
2019-04-20T10:58:00.247Z,3.70
2019-04-20T10:59:35.007Z,3.90
2019-04-20T11:01:09.731Z,4.20
2019-04-20T11:02:47.133Z,3.47
2019-04-20T11:04:21.003Z,3.90
2019-04-20T11:05:56.467Z,4.47
2019-04-20T11:07:32.552Z,4.07
2019-04-20T11:09:08.765Z,4.53
2019-04-20T11:10:55.744Z,3.90
2019-04-20T11:12:20.173Z,4.37
2019-04-20T11:13:55.378Z,4.80
2019-04-20T11:15:30.455Z,4.77
2019-04-20T11:17:06.630Z,4.23
2019-04-20T11:18:41.319Z,4.73
2019-04-20T11:20:17.235Z,5.20
2019-04-20T11:21:52.398Z,4.70
2019-04-20T11:23:28.546Z,4.30
2019-04-20T11:25:04.306Z,4.37
2019-04-20T11:26:41.635Z,4.10
2019-04-20T11:28:16.596Z,4.40
2019-04-20T11:29:51.932Z,4.17
2019-04-20T11:31:37.288Z,3.93
2019-04-20T11:33:04.427Z,4.33
2019-04-20T11:34:40.850Z,4.10
2019-04-20T11:36:17.117Z,4.27
2019-04-20T11:37:53.202Z,4.50
2019-04-20T11:39:29.239Z,4.37
2019-04-20T11:41:14.425Z,4.83
2019-04-20T11:42:41.628Z,5.10
2019-04-20T11:44:17.899Z,4.37
2019-04-20T11:45:52.593Z,4.53
2019-04-20T11:47:28.174Z,4.80
2019-04-20T11:49:05.673Z,4.47
2019-04-20T11:50:40.445Z,4.90
2019-04-20T11:52:17.866Z,4.70
2019-04-20T11:53:52.232Z,4.70
2019-04-20T11:55:26.974Z,4.43
2019-04-20T11:57:01.704Z,4.50
2019-04-20T11:58:36.314Z,5.17
2019-04-20T12:00:15.091Z,5.17
2019-04-20T12:02:10.824Z,4.80
2019-04-20T12:03:56.488Z,4.90
2019-04-20T12:05:32.405Z,4.80
2019-04-20T12:06:59.364Z,4.50
2019-04-20T12:08:38.529Z,4.97
2019-04-20T12:10:15.761Z,4.70
2019-04-20T12:11:59.617Z,4.70
2019-04-20T12:13:24.793Z,4.70
2019-04-20T12:15:00.847Z,4.60
2019-04-20T12:16:35.640Z,4.43
2019-04-20T12:18:11.623Z,5.37
2019-04-20T12:19:48.042Z,4.73
2019-04-20T12:21:23.157Z,5.20
2019-04-20T12:22:58.199Z,4.80
2019-04-20T12:24:33.202Z,5.40
2019-04-20T12:26:09.043Z,4.87
2019-04-20T12:27:50.754Z,5.30
2019-04-20T12:29:21.619Z,5.07
2019-04-20T12:31:04.117Z,4.77
2019-04-20T12:32:36.384Z,4.77
2019-04-20T12:34:10.466Z,4.83
2019-04-20T12:35:45.325Z,4.40
2019-04-20T12:37:20.879Z,4.97
2019-04-20T12:38:57.158Z,4.83
2019-04-20T12:40:34.159Z,4.77
2019-04-20T12:42:11.095Z,4.47
2019-04-20T12:43:45.890Z,3.80
2019-04-20T12:45:21.854Z,4.13
2019-04-20T12:46:57.196Z,4.60
2019-04-20T12:48:33.527Z,4.60
2019-04-20T12:50:09.715Z,3.97
2019-04-20T12:51:52.192Z,4.60
2019-04-20T12:53:20.785Z,4.07
2019-04-20T12:54:56.842Z,4.30
2019-04-20T12:56:32.794Z,4.20
2019-04-20T12:58:08.275Z,4.27
2019-04-20T12:59:46.096Z,4.40
2019-04-20T13:01:22.389Z,4.47
2019-04-20T13:02:56.743Z,4.70
2019-04-20T13:04:33.240Z,4.33
2019-04-20T13:06:08.200Z,4.67
2019-04-20T13:07:48.197Z,4.57
2019-04-20T13:09:22.874Z,4.77
2019-04-20T13:11:02.581Z,3.90
2019-04-20T13:12:58.455Z,4.17
2019-04-20T13:15:06.448Z,4.20
2019-04-20T13:16:41.250Z,3.70
2019-04-20T13:18:19.159Z,3.83
2019-04-20T13:19:53.849Z,4.20
2019-04-20T13:21:29.204Z,3.90
2019-04-20T13:23:05.703Z,4.00
2019-04-20T13:24:40.996Z,4.07
2019-04-20T13:26:17.372Z,3.67
2019-04-20T13:27:54.693Z,3.70
2019-04-20T13:29:29.453Z,3.40
2019-04-20T13:31:04.197Z,3.50
2019-04-20T13:32:39.081Z,3.47
2019-04-20T13:34:15.092Z,3.50
2019-04-20T13:35:50.197Z,3.80
2019-04-20T13:37:26.146Z,3.53
2019-04-20T13:39:01.777Z,3.50
2019-04-20T13:40:39.716Z,3.93
2019-04-20T13:42:22.397Z,3.77
2019-04-20T13:43:50.768Z,4.33
2019-04-20T13:45:26.642Z,3.30
2019-04-20T13:47:02.993Z,3.40
2019-04-20T13:48:39.057Z,3.80
2019-04-20T13:50:17.972Z,3.50
2019-04-20T13:51:54.658Z,3.40
2019-04-20T13:53:30.746Z,3.30
2019-04-20T13:55:06.453Z,3.20
2019-04-20T13:56:41.752Z,3.53
2019-04-20T13:58:47.799Z,2.90
2019-04-20T14:00:52.111Z,3.50
2019-04-20T14:02:38.980Z,4.10
2019-04-20T14:04:16.914Z,3.27
2019-04-20T14:05:52.716Z,3.23
2019-04-20T14:07:29.299Z,3.50
2019-04-20T14:09:05.629Z,3.57
2019-04-20T14:10:41.783Z,3.07
2019-04-20T14:12:25.060Z,3.63
2019-04-20T14:13:57.972Z,3.00
2019-04-20T14:15:31.200Z,2.97
2019-04-20T14:17:07.577Z,3.20
2019-04-20T14:18:42.874Z,3.20
2019-04-20T14:20:20.280Z,3.17
2019-04-20T14:21:54.511Z,3.00
2019-04-20T14:23:30.821Z,2.80
2019-04-20T14:25:07.009Z,3.10
2019-04-20T14:26:43.744Z,3.23
2019-04-20T14:28:18.668Z,2.80
2019-04-20T14:29:53.400Z,3.20
2019-04-20T14:31:28.032Z,3.20
2019-04-20T14:33:02.989Z,2.80
2019-04-20T14:34:38.631Z,2.70
2019-04-20T14:36:13.357Z,2.73
2019-04-20T14:37:48.062Z,3.13
2019-04-20T14:39:22.896Z,3.10
2019-04-20T14:40:58.158Z,3.07
2019-04-20T14:42:40.757Z,2.80
2019-04-20T14:44:09.961Z,3.30
2019-04-20T14:45:45.132Z,3.27
2019-04-20T14:47:21.595Z,2.87
2019-04-20T14:48:56.771Z,2.93
2019-04-20T14:50:33.825Z,2.73
2019-04-20T14:52:08.817Z,2.63
2019-04-20T14:53:43.459Z,3.00
2019-04-20T14:55:19.481Z,2.93
2019-04-20T14:56:55.876Z,3.07
2019-04-20T14:59:02.037Z,2.63
2019-04-20T15:00:52.670Z,2.80
2019-04-20T15:02:28.004Z,2.70
2019-04-20T15:04:09.292Z,2.70
2019-04-20T15:05:41.182Z,2.80
2019-04-20T15:07:15.893Z,2.50
2019-04-20T15:08:50.604Z,2.63
2019-04-20T15:10:25.308Z,2.30
2019-04-20T15:12:01.043Z,2.67
2019-04-20T15:13:38.474Z,2.13
2019-04-20T15:15:14.680Z,2.60
2019-04-20T15:16:50.756Z,2.53
2019-04-20T15:18:29.371Z,2.80
2019-04-20T15:20:11.912Z,2.17
2019-04-20T15:21:49.389Z,2.17
2019-04-20T15:23:25.763Z,2.27
2019-04-20T15:25:00.606Z,2.30
2019-04-20T15:26:36.301Z,2.10
2019-04-20T15:28:12.341Z,2.20
2019-04-20T15:29:48.349Z,2.10
2019-04-20T15:31:23.832Z,1.37
2019-04-20T15:32:59.048Z,1.43
2019-04-20T15:34:35.056Z,1.70
2019-04-20T15:36:10.573Z,1.77
2019-04-20T15:37:45.338Z,1.57
2019-04-20T15:39:20.995Z,1.63
2019-04-20T15:40:55.795Z,1.90
2019-04-20T15:42:30.432Z,1.50
2019-04-20T15:44:05.250Z,1.67
2019-04-20T15:45:41.136Z,1.53
2019-04-20T15:47:17.286Z,1.10
2019-04-20T15:48:52.418Z,1.50
2019-04-20T15:50:27.676Z,1.23
2019-04-20T15:52:03.813Z,1.30
2019-04-20T15:53:39.754Z,1.40
2019-04-20T15:55:22.214Z,1.57
2019-04-20T15:56:57.006Z,1.27
2019-04-20T15:58:28.209Z,1.50
2019-04-20T16:00:04.554Z,1.50
2019-04-20T16:01:49.448Z,1.40
2019-04-20T16:03:29.660Z,1.43
2019-04-20T16:05:28.666Z,1.33
2019-04-20T16:07:03.473Z,1.27
2019-04-20T16:08:39.310Z,1.30
2019-04-20T16:10:14.938Z,1.10
2019-04-20T16:11:50.837Z,1.30
2019-04-20T16:13:32.078Z,1.50
2019-04-20T16:15:02.102Z,1.80
2019-04-20T16:16:37.372Z,1.20
2019-04-20T16:18:12.574Z,1.53
2019-04-20T16:19:56.546Z,1.10
2019-04-20T16:21:27.691Z,1.37
2019-04-20T16:23:00.670Z,1.20
2019-04-20T16:24:40.622Z,1.40
2019-04-20T16:26:37.951Z,1.50
2019-04-20T16:28:14.017Z,1.20
2019-04-20T16:29:49.544Z,1.20
2019-04-20T16:31:24.579Z,1.30
2019-04-20T16:33:00.760Z,1.30
2019-04-20T16:34:37.148Z,1.17
2019-04-20T16:36:12.351Z,1.17
2019-04-20T16:37:46.975Z,1.27
2019-04-20T16:39:22.647Z,1.50
2019-04-20T16:40:57.460Z,1.43
2019-04-20T16:42:32.264Z,1.43
2019-04-20T16:44:07.298Z,1.30
2019-04-20T16:45:43.269Z,1.27
2019-04-20T16:47:18.491Z,1.20
2019-04-20T16:48:54.996Z,1.10
2019-04-20T16:50:31.018Z,1.20
2019-04-20T16:52:07.247Z,1.30
2019-04-20T16:53:41.981Z,1.40
2019-04-20T16:55:16.717Z,1.27
2019-04-20T16:56:51.308Z,1.50
2019-04-20T16:58:26.138Z,1.13
2019-04-20T17:00:01.653Z,1.40
2019-04-20T17:01:38.693Z,2.00
2019-04-20T17:03:13.572Z,1.97
2019-04-20T17:04:51.501Z,1.83
2019-04-20T17:06:26.376Z,1.57
2019-04-20T17:08:01.153Z,1.90
2019-04-20T17:09:37.948Z,1.27
2019-04-20T17:11:13.910Z,1.67
2019-04-20T17:12:48.624Z,1.40
2019-04-20T17:14:23.893Z,1.50
2019-04-20T17:15:59.581Z,1.60
2019-04-20T17:17:35.702Z,1.30
2019-04-20T17:19:10.634Z,1.53
2019-04-20T17:20:46.454Z,1.20
2019-04-20T17:22:21.583Z,1.73
2019-04-20T17:23:57.521Z,1.37
2019-04-20T17:25:32.432Z,1.47
2019-04-20T17:27:26.722Z,1.60
2019-04-20T17:29:15.872Z,1.80
2019-04-20T17:31:03.088Z,1.60
2019-04-20T17:32:39.264Z,1.80
2019-04-20T17:34:29.737Z,1.93
2019-04-20T17:36:01.219Z,1.53
2019-04-20T17:37:32.849Z,1.70
2019-04-20T17:39:10.286Z,1.60
2019-04-20T17:40:59.930Z,1.63
2019-04-20T17:42:33.295Z,1.57
2019-04-20T17:44:17.333Z,1.47
2019-04-20T17:45:44.582Z,1.57
2019-04-20T17:47:36.185Z,2.37
2019-04-20T17:49:07.810Z,1.50
2019-04-20T17:50:41.529Z,1.50
2019-04-20T17:52:24.233Z,1.60
2019-04-20T17:54:05.138Z,1.30
2019-04-20T17:55:48.269Z,1.40
2019-04-20T17:57:21.729Z,1.80
2019-04-20T17:58:56.507Z,1.50
2019-04-20T18:00:45.351Z,1.70
2019-04-20T18:02:44.307Z,1.40
2019-04-20T18:06:06.188Z,1.67
2019-04-20T18:07:44.841Z,1.63
2019-04-20T18:09:18.481Z,1.73
2019-04-20T18:10:53.032Z,1.57
2019-04-20T18:12:26.953Z,1.77
2019-04-20T18:13:58.884Z,1.80
2019-04-20T18:15:45.430Z,1.70
2019-04-20T18:17:25.939Z,1.50
2019-04-20T18:19:08.369Z,1.80
2019-04-20T18:21:01.081Z,1.43
2019-04-20T18:22:38.350Z,1.90
2019-04-20T18:24:31.324Z,1.80
2019-04-20T18:26:15.929Z,2.10
2019-04-20T18:27:41.184Z,1.83
2019-04-20T18:29:26.755Z,1.97
2019-04-20T18:31:03.535Z,2.07
2019-04-20T18:32:37.788Z,2.30
2019-04-20T18:34:20.910Z,2.47
2019-04-20T18:35:54.178Z,3.03
2019-04-20T18:37:30.817Z,2.93
2019-04-20T18:39:10.505Z,2.50
2019-04-20T18:40:54.723Z,2.87
2019-04-20T18:42:30.318Z,2.80
2019-04-20T18:43:59.219Z,3.00
2019-04-20T18:45:56.996Z,2.73
2019-04-20T18:47:33.236Z,3.10
2019-04-20T18:49:08.511Z,3.40
2019-04-20T18:50:30.774Z,3.43
2019-04-20T18:52:01.977Z,3.30
2019-04-20T18:53:42.880Z,3.30
2019-04-20T18:55:22.260Z,3.80
2019-04-20T18:56:53.442Z,3.00
2019-04-20T18:58:31.233Z,3.53
2019-04-20T19:00:07.925Z,3.53
2019-04-20T19:01:45.479Z,3.87
2019-04-20T19:03:27.592Z,3.83
2019-04-20T19:04:59.951Z,3.93
2019-04-20T19:06:36.009Z,4.70
2019-04-20T19:08:13.767Z,4.57
2019-04-20T19:09:48.652Z,5.03
2019-04-20T19:11:25.370Z,4.90
2019-04-20T19:13:09.675Z,4.80
2019-04-20T19:14:51.715Z,5.30
2019-04-20T19:16:46.635Z,5.50
2019-04-20T19:18:26.687Z,5.80
2019-04-20T19:19:57.903Z,5.80
2019-04-20T19:21:30.769Z,6.63
2019-04-20T19:23:06.302Z,5.10
2019-04-20T19:24:43.166Z,6.17
2019-04-20T19:26:21.260Z,6.40
2019-04-20T19:27:56.524Z,5.80
2019-04-20T19:29:38.764Z,6.10
2019-04-20T19:31:22.350Z,5.83
2019-04-20T19:33:01.045Z,6.47
2019-04-20T19:34:37.742Z,6.10
2019-04-20T19:36:11.596Z,6.03
2019-04-20T19:37:48.616Z,4.97
2019-04-20T19:39:28.697Z,4.80
2019-04-20T19:40:56.580Z,4.80
2019-04-20T19:42:39.354Z,4.70
2019-04-20T19:44:13.466Z,4.50
2019-04-20T19:46:15.259Z,4.40
2019-04-20T19:47:35.089Z,4.27
2019-04-20T19:49:01.120Z,4.17
2019-04-20T19:50:48.515Z,4.20
2019-04-20T19:52:33.861Z,4.23
2019-04-20T19:54:01.010Z,7.33
2019-04-20T19:55:35.440Z,6.00
2019-04-20T19:57:05.038Z,7.63
2019-04-20T19:58:39.827Z,5.83
2019-04-20T20:00:08.240Z,6.33
2019-04-20T20:01:43.725Z,6.47
2019-04-20T20:03:19.745Z,4.13
2019-04-20T20:05:02.750Z,4.53
2019-04-20T20:06:42.387Z,4.03
2019-04-20T20:08:14.921Z,5.13
2019-04-20T20:09:53.035Z,5.37
2019-04-20T20:11:29.574Z,4.60
2019-04-20T20:13:01.173Z,4.20
2019-04-20T20:14:39.727Z,4.73
2019-04-20T20:16:20.292Z,3.73
2019-04-20T20:18:05.827Z,3.97
2019-04-20T20:19:38.133Z,4.10
2019-04-20T20:21:16.153Z,4.33
2019-04-20T20:22:42.732Z,4.30
2019-04-20T20:24:15.785Z,3.77
2019-04-20T20:25:50.097Z,4.47
2019-04-20T20:27:32.555Z,4.60
2019-04-20T20:29:14.554Z,4.63
2019-04-20T20:30:55.247Z,5.87
2019-04-20T20:32:21.443Z,6.80
2019-04-20T20:34:03.082Z,7.17
2019-04-20T20:35:31.254Z,6.40
2019-04-20T20:37:09.618Z,5.53
2019-04-20T20:38:47.657Z,6.03
2019-04-20T20:40:26.596Z,5.63
2019-04-20T20:42:06.391Z,5.50
2019-04-20T20:43:44.660Z,5.87
2019-04-20T20:45:19.744Z,5.53
2019-04-20T20:46:58.694Z,5.50
2019-04-20T20:48:37.002Z,5.90
2019-04-20T20:50:33.827Z,5.50
2019-04-20T20:51:55.860Z,5.93
2019-04-20T20:53:16.706Z,5.27
2019-04-20T20:54:56.404Z,5.17
2019-04-20T20:56:29.113Z,5.23
2019-04-20T20:58:10.122Z,5.70
2019-04-20T20:59:49.412Z,5.53
2019-04-20T21:01:20.286Z,5.37
2019-04-20T21:02:56.681Z,5.60
2019-04-20T21:04:25.856Z,5.70
2019-04-20T21:06:00.537Z,5.83
2019-04-20T21:07:36.423Z,5.33
2019-04-20T21:09:12.520Z,5.20
2019-04-20T21:10:49.698Z,5.30
2019-04-20T21:12:26.924Z,4.97
2019-04-20T21:14:04.510Z,5.00
2019-04-20T21:15:40.505Z,4.87
2019-04-20T21:17:18.333Z,5.10
2019-04-20T21:19:07.845Z,5.10
2019-04-20T21:20:49.246Z,4.67
2019-04-20T21:22:11.498Z,4.47
2019-04-20T21:23:50.784Z,4.87
2019-04-20T21:25:27.646Z,4.80
2019-04-20T21:27:00.698Z,5.30
2019-04-20T21:28:36.215Z,5.10
2019-04-20T21:30:18.339Z,5.10
2019-04-20T21:31:57.074Z,5.13
2019-04-20T21:33:28.218Z,5.37
2019-04-20T21:35:06.464Z,4.93
2019-04-20T21:36:38.793Z,4.83
2019-04-20T21:38:15.525Z,5.27
2019-04-20T21:39:56.136Z,5.17
2019-04-20T21:41:27.887Z,5.30
2019-04-20T21:43:06.966Z,5.50
2019-04-20T21:44:42.902Z,5.87
2019-04-20T21:46:16.567Z,5.40
2019-04-20T21:47:52.572Z,5.37
2019-04-20T21:49:42.330Z,5.53
2019-04-20T21:51:18.966Z,5.57
2019-04-20T21:52:45.106Z,5.57
2019-04-20T21:54:18.108Z,6.13
2019-04-20T21:55:55.076Z,6.10
2019-04-20T21:57:31.333Z,5.40
2019-04-20T21:59:14.411Z,6.03
2019-04-20T22:01:10.938Z,6.40
2019-04-20T22:02:44.688Z,6.17
2019-04-20T22:04:12.463Z,6.77
2019-04-20T22:05:48.569Z,6.33
2019-04-20T22:07:23.377Z,7.27
2019-04-20T22:09:01.004Z,7.20